createdAt,value
2018-01-01T02:07:16.720Z,82.13
2018-01-01T02:09:44.433Z,81.76
2018-01-01T02:12:12.253Z,81.65
2018-01-01T02:14:42.764Z,80.79
2018-01-01T02:17:10.744Z,80.79
2018-01-01T02:19:38.519Z,80.88
2018-01-01T02:22:06.730Z,80.78
2018-01-01T02:24:34.552Z,80.92
2018-01-01T02:27:02.316Z,81.41
2018-01-01T02:29:30.068Z,81.29
2018-01-01T02:31:57.919Z,80.55
2018-01-01T02:34:28.318Z,79.55
2018-01-01T02:36:56.486Z,79.58
2018-01-01T02:39:25.859Z,79.27
2018-01-01T02:41:54.651Z,79.88
2018-01-01T02:44:23.220Z,78.46
2018-01-01T02:46:50.936Z,78.78
2018-01-01T02:49:18.840Z,79.76
2018-01-01T02:51:50.280Z,79.87
2018-01-01T02:54:19.658Z,79.99
2018-01-01T02:56:51.648Z,80.20
2018-01-01T02:59:20.811Z,80.29
2018-01-01T03:01:49.890Z,80.92
2018-01-01T03:04:18.492Z,81.59
2018-01-01T03:06:49.484Z,81.66
2018-01-01T03:09:19.152Z,81.62
2018-01-01T03:11:48.116Z,81.17
2018-01-01T03:14:17.055Z,81.47
2018-01-01T03:16:46.234Z,82.00
2018-01-01T03:19:16.472Z,82.23
2018-01-01T03:21:44.483Z,82.13
2018-01-01T03:24:12.776Z,83.03
2018-01-01T03:26:40.524Z,82.62
2018-01-01T03:29:08.352Z,82.32
2018-01-01T03:31:39.083Z,83.14
2018-01-01T03:34:06.870Z,82.97
2018-01-01T03:36:35.788Z,82.29
2018-01-01T03:39:03.756Z,82.93
2018-01-01T03:42:08.183Z,84.14
2018-01-01T03:44:42.069Z,84.19
2018-01-01T03:47:12.535Z,83.01
2018-01-01T03:49:48.012Z,83.20
2018-01-01T03:52:17.913Z,82.31
2018-01-01T03:54:50.495Z,83.39
2018-01-01T03:57:21.067Z,82.71
2018-01-01T04:02:25.290Z,83.09
2018-01-01T04:04:57.634Z,83.51
2018-01-01T04:07:30.388Z,84.17
2018-01-01T04:10:07.124Z,84.67
2018-01-01T04:12:37.730Z,84.77
2018-01-01T04:15:05.788Z,84.30
2018-01-01T04:17:33.586Z,85.01
2018-01-01T04:20:01.671Z,84.94
2018-01-01T04:22:33.293Z,85.43
2018-01-01T04:25:02.694Z,85.21
2018-01-01T04:27:30.561Z,84.30
2018-01-01T04:29:59.324Z,85.05
2018-01-01T04:32:28.003Z,85.35
2018-01-01T04:34:55.787Z,86.13
2018-01-01T04:37:23.679Z,87.97
2018-01-01T04:39:55.055Z,87.50
2018-01-01T04:42:28.936Z,85.89
2018-01-01T04:44:59.710Z,87.29
2018-01-01T04:47:27.572Z,86.05
2018-01-01T04:49:56.206Z,85.97
2018-01-01T04:52:25.581Z,85.54
2018-01-01T04:55:05.934Z,85.33
2018-01-01T04:57:33.839Z,86.09
2018-01-01T05:00:03.206Z,87.11
2018-01-01T05:02:38.833Z,87.31
2018-01-01T05:05:06.651Z,87.32
2018-01-01T05:07:38.676Z,87.70
2018-01-01T05:10:09.370Z,88.36
2018-01-01T05:12:45.985Z,86.02
2018-01-01T05:15:25.308Z,86.99
2018-01-01T05:17:56.220Z,85.52
2018-01-01T05:20:32.678Z,86.62
2018-01-01T05:23:09.357Z,87.38
2018-01-01T05:25:43.309Z,87.33
2018-01-01T05:28:17.337Z,87.25
2018-01-01T05:30:48.460Z,86.15
2018-01-01T05:33:27.576Z,85.83
2018-01-01T05:42:05.874Z,84.85
2018-01-01T05:44:54.820Z,84.29
2018-01-01T05:47:26.186Z,83.43
2018-01-01T05:55:47.570Z,80.36
2018-01-01T05:58:17.124Z,81.89
2018-01-01T06:00:47.705Z,82.33
2018-01-01T11:10:41.469Z,84.55
2018-01-01T11:13:14.118Z,85.30
2018-01-01T11:15:57.305Z,84.59
2018-01-01T11:58:00.507Z,85.55
2018-01-01T12:00:28.211Z,84.58
2018-01-01T12:06:07.216Z,83.55
2018-01-01T12:08:35.592Z,83.30
2018-01-01T12:11:06.085Z,83.26
2018-01-01T12:13:33.886Z,83.24
2018-01-01T12:16:01.577Z,83.53
2018-01-01T12:18:31.182Z,83.90
2018-01-01T12:23:36.552Z,83.95
2018-01-01T12:26:07.103Z,85.36
2018-01-01T12:28:36.014Z,84.60
2018-01-01T12:31:05.182Z,84.58
2018-01-01T12:33:35.406Z,85.51
2018-01-01T12:36:04.497Z,85.45
2018-01-01T12:38:33.492Z,85.01
2018-01-01T12:41:02.799Z,84.44
2018-01-01T12:43:33.293Z,84.65
2018-01-01T12:46:01.408Z,83.97
2018-01-01T12:48:30.208Z,84.54
2018-01-01T12:51:02.424Z,84.13
2018-01-01T12:53:30.642Z,83.50
2018-01-01T12:55:59.677Z,82.87
2018-01-01T12:58:33.751Z,82.43
2018-01-01T13:01:06.737Z,83.46
2018-01-01T13:03:35.393Z,82.36
2018-01-01T13:06:04.088Z,82.71
2018-01-01T13:08:38.514Z,82.62
2018-01-01T13:11:32.384Z,81.88
2018-01-01T13:14:16.075Z,82.51
2018-01-01T13:16:44.012Z,82.48
2018-01-01T13:19:11.758Z,82.57
2018-01-01T13:21:39.793Z,81.29
2018-01-01T13:24:10.364Z,81.98
2018-01-01T13:26:38.005Z,81.85
2018-01-01T13:29:05.782Z,82.64
2018-01-01T13:31:34.312Z,82.38
2018-01-01T13:34:02.036Z,82.59
2018-01-01T14:12:47.532Z,82.14
2018-01-01T14:15:16.694Z,81.90
2018-01-01T14:17:47.120Z,82.28
2018-01-01T14:20:14.838Z,81.87
2018-01-01T14:22:47.566Z,82.21
2018-01-01T14:28:36.395Z,81.89
2018-01-01T14:31:08.842Z,81.75
2018-01-01T14:33:36.903Z,81.71
2018-01-01T14:36:12.616Z,81.83
2018-01-01T14:38:53.046Z,81.66
2018-01-01T14:41:20.771Z,81.90
2018-01-01T14:43:52.217Z,82.04
2018-01-01T14:47:15.313Z,81.44
2018-01-01T14:49:59.240Z,81.56
2018-01-01T14:52:31.463Z,81.60
2018-01-01T14:55:01.310Z,81.74
2018-01-01T15:11:22.234Z,82.72
2018-01-01T15:13:55.511Z,82.78
2018-01-01T15:16:23.316Z,82.87
2018-01-01T15:18:51.025Z,82.95
2018-01-01T15:21:18.675Z,83.03
2018-01-01T15:23:46.362Z,82.99
2018-01-01T15:26:14.112Z,83.00
2018-01-01T15:28:41.861Z,83.08
2018-01-01T15:31:09.669Z,83.21
2018-01-01T15:33:37.413Z,83.38
2018-01-01T15:36:06.012Z,83.42
2018-01-01T15:38:34.149Z,83.57
2018-01-01T15:41:02.415Z,83.69
2018-01-01T15:43:30.122Z,83.86
2018-01-01T15:46:00.717Z,83.95
2018-01-01T15:48:28.306Z,84.01
2018-01-01T15:50:56.446Z,84.26
2018-01-01T15:53:24.413Z,84.27
2018-01-01T15:55:52.217Z,84.23
2018-01-01T15:58:20.739Z,84.25
2018-01-01T16:43:58.387Z,84.51
2018-01-01T16:46:28.411Z,84.31
2018-01-01T16:48:56.559Z,84.25
2018-01-01T16:51:24.322Z,84.04
2018-01-01T16:53:51.983Z,84.04
2018-01-01T16:56:19.709Z,83.81
2018-01-01T16:58:47.435Z,83.80
2018-01-01T17:01:15.131Z,83.91
2018-01-01T17:03:43.132Z,83.96
2018-01-01T17:06:11.217Z,83.78
2018-01-01T17:08:41.137Z,83.71
2018-01-01T17:11:08.921Z,83.64
2018-01-01T17:13:37.430Z,83.42
2018-01-01T17:16:09.898Z,83.27
2018-01-01T17:18:37.907Z,83.18
2018-01-01T17:21:05.977Z,82.98
2018-01-01T17:23:33.854Z,83.03
2018-01-01T17:26:01.569Z,83.19
2018-01-01T17:28:29.388Z,83.31
2018-01-01T17:30:57.338Z,83.58
2018-01-01T17:33:32.557Z,83.60
2018-01-01T17:36:02.620Z,83.64
2018-01-01T17:38:30.810Z,83.75
2018-01-01T17:40:58.630Z,84.02
2018-01-01T17:43:26.903Z,84.06
2018-01-01T17:45:54.800Z,83.96
2018-01-01T17:48:22.534Z,84.11
2018-01-01T17:50:50.359Z,84.23
2018-01-01T17:53:18.080Z,84.33
2018-01-01T17:55:45.880Z,84.43
2018-01-01T17:58:13.813Z,84.58
2018-01-01T18:00:41.626Z,84.77
2018-01-01T18:03:11.331Z,84.79
2018-01-01T18:05:39.101Z,84.93
2018-01-01T18:08:08.767Z,85.14
2018-01-01T18:10:36.474Z,85.20
2018-01-01T18:13:04.120Z,85.29
2018-01-01T18:15:31.786Z,85.31
2018-01-01T18:17:59.496Z,85.37
2018-01-01T18:20:27.284Z,85.33
2018-01-01T18:24:13.992Z,85.28
2018-01-01T18:26:41.827Z,85.32
2018-01-01T18:29:09.631Z,85.33
2018-01-01T18:31:37.492Z,85.37
2018-01-01T18:34:05.242Z,85.35
2018-01-01T18:36:33.435Z,85.34
2018-01-01T18:39:01.216Z,85.40
2018-01-01T18:41:29.393Z,85.53
2018-01-01T18:43:57.867Z,85.63
2018-01-01T18:46:26.040Z,85.65
2018-01-01T18:48:55.465Z,85.70
2018-01-01T18:51:23.169Z,85.73
2018-01-01T18:53:51.046Z,85.82
2018-01-01T18:56:18.721Z,85.83
2018-01-01T18:58:46.501Z,85.84
2018-01-01T19:01:15.483Z,86.02
2018-01-01T19:03:43.782Z,86.09
2018-01-01T19:06:11.475Z,86.09
2018-01-01T19:08:39.239Z,86.04
2018-01-01T19:11:08.047Z,85.99
2018-01-01T19:13:35.833Z,86.05
2018-01-01T19:16:03.751Z,86.15
2018-01-01T19:18:31.611Z,86.29
2018-01-01T19:20:59.511Z,86.32
2018-01-01T19:23:27.302Z,86.37
2018-01-01T19:25:55.082Z,86.45
2018-01-01T19:28:22.958Z,86.64
2018-01-01T19:30:50.811Z,86.63
2018-01-01T19:33:21.749Z,86.66
2018-01-01T19:35:49.595Z,86.67
2018-01-01T19:38:18.510Z,86.70
2018-01-01T19:40:46.213Z,86.66
2018-01-01T19:43:13.943Z,86.61
2018-01-01T19:45:42.822Z,86.65
2018-01-01T19:48:10.535Z,86.62
2018-01-01T19:50:38.214Z,86.63
2018-01-01T19:53:06.046Z,86.67
2018-01-01T19:55:33.879Z,86.69
2018-01-01T19:58:01.597Z,86.73
2018-01-01T20:00:29.422Z,86.75
2018-01-01T20:02:57.113Z,86.68
2018-01-01T20:05:26.622Z,86.63
2018-01-01T20:07:57.474Z,86.59
2018-01-01T20:10:27.327Z,86.60
